createdAt,value
2023-11-14T00:01:21.876Z,2.40
2023-11-14T00:03:49.252Z,3.08
2023-11-14T00:06:16.236Z,2.92
2023-11-14T00:08:42.696Z,2.80
2023-11-14T00:11:11.085Z,2.53
2023-11-14T00:13:37.669Z,2.78
2023-11-14T00:16:04.654Z,3.72
2023-11-14T00:18:31.571Z,3.25
2023-11-14T00:20:59.123Z,2.60
2023-11-14T00:23:25.901Z,3.40
2023-11-14T00:25:52.423Z,2.78
2023-11-14T00:28:18.994Z,2.70
2023-11-14T00:30:45.804Z,2.92
2023-11-14T00:33:12.421Z,2.47
2023-11-14T00:35:40.046Z,2.22
2023-11-14T00:38:06.620Z,2.50
2023-11-14T00:40:33.103Z,2.58
2023-11-14T00:42:59.546Z,2.25
2023-11-14T00:45:28.264Z,2.80
2023-11-14T00:47:55.583Z,2.92
2023-11-14T00:50:22.104Z,2.92
2023-11-14T00:52:48.601Z,3.00
2023-11-14T00:55:15.048Z,2.28
2023-11-14T00:57:42.141Z,2.30
2023-11-14T01:00:11.820Z,3.88
2023-11-14T01:02:40.464Z,3.10
2023-11-14T01:05:07.670Z,3.28
2023-11-14T01:07:34.237Z,2.60
2023-11-14T01:10:00.811Z,2.60
2023-11-14T01:12:27.293Z,2.60
2023-11-14T01:14:53.792Z,2.60
2023-11-14T01:17:21.233Z,2.22
2023-11-14T01:19:48.532Z,2.70
2023-11-14T01:22:14.945Z,2.63
2023-11-14T01:24:41.706Z,2.65
2023-11-14T01:27:08.376Z,2.63
2023-11-14T01:29:34.770Z,2.53
2023-11-14T01:32:01.856Z,2.97
2023-11-14T01:34:29.377Z,2.92
2023-11-14T01:36:57.370Z,2.72
2023-11-14T01:39:25.112Z,2.35
2023-11-14T01:41:54.589Z,2.60
2023-11-14T01:44:21.021Z,2.47
2023-11-14T01:46:48.596Z,2.30
2023-11-14T01:49:15.096Z,2.95
2023-11-14T01:51:43.584Z,1.98
2023-11-14T01:54:11.915Z,1.60
2023-11-14T01:56:41.178Z,1.98
2023-11-14T01:59:08.417Z,2.30
2023-11-14T02:01:35.587Z,2.28
2023-11-14T02:04:08.329Z,2.65
2023-11-14T02:06:37.167Z,2.08
2023-11-14T02:09:04.149Z,2.47
2023-11-14T02:11:30.614Z,2.30
2023-11-14T02:13:57.112Z,2.08
2023-11-14T02:16:25.589Z,2.25
2023-11-14T02:18:52.158Z,1.85
2023-11-14T02:21:18.755Z,2.97
2023-11-14T02:23:49.116Z,1.90
2023-11-14T02:26:15.795Z,2.10
2023-11-14T02:28:42.339Z,3.13
2023-11-14T02:31:08.896Z,1.73
2023-11-14T02:33:39.066Z,2.30
2023-11-14T02:36:06.969Z,2.40
2023-11-14T02:38:33.433Z,1.92
2023-11-14T02:40:59.968Z,2.22
2023-11-14T02:43:26.468Z,2.58
2023-11-14T02:45:52.866Z,2.38
2023-11-14T02:48:20.297Z,2.17
2023-11-14T02:50:57.426Z,2.80
2023-11-14T02:53:24.367Z,2.00
2023-11-14T02:55:51.824Z,1.70
2023-11-14T02:58:20.072Z,2.65
2023-11-14T03:00:49.629Z,2.85
2023-11-14T03:03:17.208Z,1.85
2023-11-14T03:05:45.004Z,1.80
2023-11-14T03:08:11.952Z,2.00
2023-11-14T03:10:39.064Z,1.92
2023-11-14T03:13:07.778Z,1.98
2023-11-14T03:15:34.151Z,2.08
2023-11-14T03:18:00.897Z,2.50
2023-11-14T03:20:33.946Z,2.35
2023-11-14T03:23:02.034Z,2.88
2023-11-14T03:25:28.462Z,2.13
2023-11-14T03:27:55.127Z,3.13
2023-11-14T03:30:23.432Z,2.67
2023-11-14T03:32:50.271Z,2.47
2023-11-14T03:35:16.965Z,2.58
2023-11-14T03:37:43.458Z,2.45
2023-11-14T03:40:10.524Z,2.72
2023-11-14T03:42:37.413Z,2.20
2023-11-14T03:45:04.375Z,1.85
2023-11-14T03:47:31.164Z,2.80
2023-11-14T03:49:57.673Z,2.30
2023-11-14T03:52:26.632Z,2.10
2023-11-14T03:54:53.036Z,2.30
2023-11-14T03:57:20.792Z,1.45
2023-11-14T03:59:47.197Z,2.28
2023-11-14T04:02:14.124Z,2.00
2023-11-14T04:04:40.694Z,2.40
2023-11-14T04:07:07.090Z,2.17
2023-11-14T04:09:33.520Z,1.55
2023-11-14T04:12:00.081Z,2.00
2023-11-14T04:14:26.452Z,1.75
2023-11-14T04:16:53.129Z,2.25
2023-11-14T04:19:19.557Z,2.25
2023-11-14T04:21:45.972Z,1.70
2023-11-14T04:24:12.403Z,2.00
2023-11-14T04:26:38.864Z,2.20
2023-11-14T04:29:05.376Z,1.98
2023-11-14T04:31:31.847Z,2.92
2023-11-14T04:33:58.312Z,2.08
2023-11-14T04:36:25.035Z,2.08
2023-11-14T04:38:51.849Z,2.72
2023-11-14T04:41:19.109Z,2.50
2023-11-14T04:43:47.154Z,2.22
2023-11-14T04:46:13.848Z,2.83
2023-11-14T04:48:44.033Z,2.75
2023-11-14T04:51:11.056Z,2.60
2023-11-14T04:53:37.452Z,2.45
2023-11-14T04:56:04.246Z,2.00
2023-11-14T04:58:31.436Z,2.40
2023-11-14T05:00:58.752Z,2.55
2023-11-14T05:03:25.224Z,2.83
2023-11-14T05:05:51.672Z,1.85
2023-11-14T05:08:18.050Z,2.53
2023-11-14T05:10:45.013Z,1.90
2023-11-14T05:13:11.421Z,2.10
2023-11-14T05:15:37.801Z,2.60
2023-11-14T05:18:04.832Z,1.88
2023-11-14T05:20:31.277Z,1.88
2023-11-14T05:22:57.768Z,2.00
2023-11-14T05:25:24.159Z,2.30
2023-11-14T05:27:51.055Z,2.60
2023-11-14T05:30:17.578Z,2.20
2023-11-14T05:32:45.047Z,2.83
2023-11-14T05:35:11.461Z,2.38
2023-11-14T05:37:37.973Z,2.28
2023-11-14T05:40:04.894Z,2.00
2023-11-14T05:42:31.279Z,2.85
2023-11-14T05:44:57.653Z,2.40
2023-11-14T05:47:24.212Z,2.63
2023-11-14T05:49:50.705Z,3.08
2023-11-14T05:52:17.145Z,3.38
2023-11-14T05:54:43.531Z,3.17
2023-11-14T05:57:10.035Z,2.75
2023-11-14T05:59:36.457Z,2.00
2023-11-14T06:02:02.978Z,1.40
2023-11-14T06:04:32.473Z,1.90
2023-11-14T06:06:59.176Z,1.92
2023-11-14T06:09:25.859Z,2.25
2023-11-14T06:11:52.313Z,1.88
2023-11-14T06:14:18.815Z,1.63
2023-11-14T06:16:45.428Z,0.98
2023-11-14T06:19:12.426Z,3.30
2023-11-14T06:21:38.943Z,1.20
2023-11-14T06:24:05.607Z,1.23
2023-11-14T06:26:32.012Z,2.08
2023-11-14T06:28:58.470Z,1.50
2023-11-14T06:31:25.381Z,1.70
2023-11-14T06:33:51.822Z,1.33
2023-11-14T06:36:18.272Z,2.15
2023-11-14T06:38:44.732Z,1.90
2023-11-14T06:41:11.208Z,2.40
2023-11-14T06:43:37.664Z,3.35
2023-11-14T06:46:04.376Z,2.90
2023-11-14T06:48:30.805Z,2.35
2023-11-14T06:50:57.421Z,2.28
2023-11-14T06:53:23.901Z,1.77
2023-11-14T06:55:50.329Z,3.15
2023-11-14T06:58:16.762Z,2.88
2023-11-14T07:00:43.253Z,2.55
2023-11-14T07:03:13.588Z,3.00
2023-11-14T07:05:40.042Z,2.00
2023-11-14T07:08:06.469Z,2.55
2023-11-14T07:10:35.945Z,2.70
2023-11-14T07:13:03.418Z,2.30
2023-11-14T07:15:29.876Z,2.78
2023-11-14T07:17:56.387Z,2.20
2023-11-14T07:20:24.969Z,2.42
2023-11-14T07:22:52.309Z,1.98
2023-11-14T07:25:18.753Z,3.08
2023-11-14T07:27:48.017Z,1.90
2023-11-14T07:30:14.482Z,2.50
2023-11-14T07:32:41.182Z,2.60
2023-11-14T07:35:07.736Z,2.40
2023-11-14T07:37:35.603Z,1.80
2023-11-14T07:40:02.112Z,1.90
2023-11-14T07:42:28.478Z,1.60
2023-11-14T07:44:54.890Z,2.97
2023-11-14T07:47:21.841Z,1.98
2023-11-14T07:49:48.890Z,1.85
2023-11-14T07:52:15.407Z,2.78
2023-11-14T07:54:41.884Z,2.53
2023-11-14T07:57:08.732Z,2.15
2023-11-14T07:59:35.165Z,2.25
2023-11-14T08:02:02.800Z,2.65
2023-11-14T08:04:29.829Z,3.00
2023-11-14T08:06:56.826Z,3.10
2023-11-14T08:09:23.232Z,2.33
2023-11-14T08:11:49.694Z,1.77
2023-11-14T08:14:16.265Z,1.90
2023-11-14T08:16:42.819Z,2.85
2023-11-14T08:19:09.298Z,1.83
2023-11-14T08:21:35.701Z,3.22
2023-11-14T08:24:02.112Z,2.33
2023-11-14T08:26:28.797Z,5.13
2023-11-14T08:28:55.558Z,2.50
2023-11-14T08:31:22.090Z,1.95
2023-11-14T08:33:48.515Z,2.00
2023-11-14T08:36:15.942Z,2.22
2023-11-14T08:38:42.591Z,2.25
2023-11-14T08:41:09.206Z,2.25
2023-11-14T08:43:35.748Z,3.25
2023-11-14T08:46:02.335Z,1.80
2023-11-14T08:48:28.790Z,2.10
2023-11-14T08:50:55.543Z,1.55
2023-11-14T08:53:22.642Z,2.05
2023-11-14T08:55:49.527Z,2.08
2023-11-14T08:58:16.006Z,2.05
2023-11-14T09:00:42.419Z,1.45
2023-11-14T09:03:09.026Z,1.70
2023-11-14T09:05:35.949Z,1.83
2023-11-14T09:08:04.738Z,1.52
2023-11-14T09:10:31.245Z,1.98
2023-11-14T09:12:57.787Z,1.80
2023-11-14T09:15:24.281Z,1.30
2023-11-14T09:17:54.572Z,1.42
2023-11-14T09:20:23.224Z,1.60
2023-11-14T09:22:49.683Z,2.00
2023-11-14T09:25:16.565Z,1.75
2023-11-14T09:27:45.955Z,1.58
2023-11-14T09:30:15.252Z,1.35
2023-11-14T09:32:42.058Z,2.50
2023-11-14T09:35:08.768Z,1.85
2023-11-14T09:37:35.188Z,2.88
2023-11-14T09:40:01.606Z,1.85
2023-11-14T09:42:28.078Z,1.90
2023-11-14T09:44:55.519Z,2.00
2023-11-14T09:47:22.214Z,1.63
2023-11-14T09:49:50.335Z,1.60
2023-11-14T09:52:17.544Z,1.52
2023-11-14T09:54:44.931Z,1.30
2023-11-14T09:57:12.851Z,1.60
2023-11-14T09:59:42.855Z,1.83
2023-11-14T10:02:09.608Z,1.83
2023-11-14T10:04:36.015Z,1.52
2023-11-14T10:07:02.767Z,1.67
2023-11-14T10:09:29.495Z,1.70
2023-11-14T10:12:16.864Z,1.48
2023-11-14T10:14:47.130Z,2.38
2023-11-14T10:17:15.080Z,1.90
2023-11-14T10:20:01.468Z,1.70
2023-11-14T10:22:29.105Z,1.35
2023-11-14T10:24:56.127Z,1.55
2023-11-14T10:27:29.902Z,1.60
2023-11-14T10:29:56.767Z,1.52
2023-11-14T10:32:23.771Z,1.60
2023-11-14T10:34:52.744Z,2.20
2023-11-14T10:37:32.523Z,2.03
2023-11-14T10:39:59.067Z,1.70
2023-11-14T10:42:26.330Z,1.52
2023-11-14T10:45:08.072Z,2.22
2023-11-14T10:47:37.870Z,1.70
2023-11-14T10:50:24.143Z,1.45
2023-11-14T10:52:51.805Z,1.42
2023-11-14T10:55:19.217Z,1.27
2023-11-14T10:57:45.758Z,1.27
2023-11-14T11:00:13.022Z,1.45
2023-11-14T11:02:41.117Z,1.63
2023-11-14T11:05:16.598Z,1.20
2023-11-14T11:07:49.677Z,1.02
2023-11-14T11:10:17.677Z,1.00
2023-11-14T11:12:46.159Z,1.02
2023-11-14T11:15:12.796Z,0.90
2023-11-14T11:17:45.481Z,1.20
2023-11-14T11:20:24.883Z,1.13
2023-11-14T11:23:11.785Z,1.70
2023-11-14T11:25:42.641Z,1.25
2023-11-14T11:28:28.318Z,1.65
2023-11-14T11:31:17.504Z,1.30
2023-11-14T11:33:45.852Z,1.30
2023-11-14T11:36:21.493Z,1.40
2023-11-14T11:39:10.123Z,2.88
2023-11-14T11:41:55.938Z,1.55
2023-11-14T11:44:36.367Z,2.35
2023-11-14T11:47:02.846Z,2.03
2023-11-14T11:49:29.905Z,1.67
2023-11-14T11:52:10.113Z,1.98
2023-11-14T11:54:38.016Z,2.15
2023-11-14T11:57:04.392Z,1.48
2023-11-14T11:59:30.829Z,2.03
2023-11-14T12:02:03.119Z,1.60
2023-11-14T12:04:29.952Z,1.60
2023-11-14T12:06:56.570Z,2.00
2023-11-14T12:09:23.638Z,1.52
2023-11-14T12:11:50.048Z,1.75
2023-11-14T12:14:19.641Z,1.67
2023-11-14T12:16:48.967Z,1.63
2023-11-14T12:19:16.149Z,3.03
2023-11-14T12:21:45.963Z,1.50
2023-11-14T12:24:13.358Z,1.55
2023-11-14T12:26:40.061Z,0.98
2023-11-14T12:29:11.596Z,1.48
2023-11-14T12:31:38.318Z,1.88
2023-11-14T12:34:05.796Z,1.25
2023-11-14T12:36:34.300Z,1.35
2023-11-14T12:39:16.594Z,1.10
2023-11-14T12:41:44.324Z,1.00
2023-11-14T12:44:12.240Z,1.15
2023-11-14T12:46:40.685Z,1.50
2023-11-14T12:49:11.396Z,1.90
2023-11-14T12:51:44.197Z,1.48
2023-11-14T12:54:12.146Z,1.60
2023-11-14T12:56:40.461Z,1.67
2023-11-14T12:59:08.855Z,1.92
2023-11-14T13:01:36.426Z,1.83
2023-11-14T13:04:12.985Z,2.35
2023-11-14T13:06:42.964Z,2.35
2023-11-14T13:09:09.592Z,1.30
2023-11-14T13:11:36.609Z,1.30
2023-11-14T13:14:04.144Z,2.17
2023-11-14T13:16:31.703Z,1.50
2023-11-14T13:18:58.291Z,1.48
2023-11-14T13:21:25.724Z,2.22
2023-11-14T13:23:52.927Z,1.55
2023-11-14T13:26:23.742Z,2.47
2023-11-14T13:28:51.042Z,2.15
2023-11-14T13:31:18.171Z,1.90
2023-11-14T13:33:44.871Z,1.92
2023-11-14T13:36:16.055Z,2.00
2023-11-14T13:38:45.297Z,1.60
2023-11-14T13:43:42.484Z,2.88
2023-11-14T13:46:13.839Z,2.03
2023-11-14T13:48:48.214Z,1.35
2023-11-14T13:51:14.652Z,2.13
2023-11-14T13:53:41.105Z,2.15
2023-11-14T13:56:09.201Z,1.55
2023-11-14T13:58:36.761Z,1.88
2023-11-14T14:01:17.562Z,1.92
2023-11-14T14:03:44.244Z,1.30
2023-11-14T14:06:10.909Z,1.40
2023-11-14T14:08:38.130Z,1.60
2023-11-14T14:11:08.624Z,1.30
2023-11-14T14:13:36.224Z,1.60
2023-11-14T14:16:04.146Z,1.52
2023-11-14T14:18:32.593Z,1.98
2023-11-14T14:21:03.640Z,2.00
2023-11-14T14:23:30.895Z,1.98
2023-11-14T14:25:58.384Z,1.55
2023-11-14T14:28:30.494Z,1.50
2023-11-14T14:30:58.214Z,1.60
2023-11-14T14:33:24.657Z,1.77
2023-11-14T14:35:53.696Z,1.35
2023-11-14T14:38:23.972Z,1.63
2023-11-14T14:40:50.525Z,1.33
2023-11-14T14:43:17.390Z,1.15
2023-11-14T14:45:45.303Z,1.83
2023-11-14T14:48:11.893Z,1.15
2023-11-14T14:50:38.417Z,1.20
2023-11-14T14:53:05.817Z,1.30
2023-11-14T14:55:32.885Z,1.15
2023-11-14T14:58:05.017Z,1.13
2023-11-14T15:00:32.820Z,1.15
2023-11-14T15:03:03.135Z,0.93
2023-11-14T15:05:36.309Z,1.23
2023-11-14T15:08:07.403Z,0.70
2023-11-14T15:10:34.763Z,1.52
2023-11-14T15:13:01.243Z,1.10
2023-11-14T15:15:28.205Z,1.40
2023-11-14T15:17:57.779Z,1.17
2023-11-14T15:20:25.036Z,0.93
2023-11-14T15:22:52.540Z,0.93
2023-11-14T15:25:19.288Z,0.60
2023-11-14T15:27:45.720Z,0.93
2023-11-14T15:30:13.347Z,1.33
2023-11-14T15:32:39.849Z,0.77
2023-11-14T15:35:06.568Z,0.82
2023-11-14T15:37:33.010Z,1.10
2023-11-14T15:39:59.415Z,0.70
2023-11-14T15:42:26.662Z,0.85
2023-11-14T15:44:53.028Z,1.08
2023-11-14T15:47:19.463Z,1.23
2023-11-14T15:49:45.868Z,1.27
2023-11-14T15:52:12.606Z,1.20
2023-11-14T15:54:38.971Z,0.80
2023-11-14T15:57:06.433Z,1.27
2023-11-14T15:59:34.225Z,0.93
2023-11-14T16:02:02.167Z,0.90
2023-11-14T16:04:28.843Z,0.88
2023-11-14T16:06:55.379Z,1.37
2023-11-14T16:09:21.767Z,1.10
2023-11-14T16:11:49.040Z,1.63
2023-11-14T16:14:15.465Z,0.90
2023-11-14T16:16:41.906Z,1.02
2023-11-14T16:19:08.298Z,1.48
2023-11-14T16:21:34.840Z,0.80
2023-11-14T16:24:01.253Z,1.15
2023-11-14T16:26:30.323Z,1.00
2023-11-14T16:28:56.764Z,1.05
2023-11-14T16:31:23.275Z,0.90
2023-11-14T16:33:49.727Z,1.02
2023-11-14T16:36:16.190Z,0.90
2023-11-14T16:38:42.571Z,0.75
2023-11-14T16:41:09.048Z,0.93
2023-11-14T16:43:37.424Z,1.00
2023-11-14T16:46:04.962Z,0.60
2023-11-14T16:48:32.204Z,1.42
2023-11-14T16:50:59.197Z,1.52
2023-11-14T16:53:26.520Z,1.00
2023-11-14T16:55:53.148Z,1.13
2023-11-14T16:58:20.124Z,1.10
2023-11-14T17:00:46.616Z,0.70
2023-11-14T17:03:14.444Z,0.80
2023-11-14T17:05:41.675Z,2.22
2023-11-14T17:08:08.439Z,1.05
2023-11-14T17:10:34.970Z,0.75
2023-11-14T17:13:01.460Z,0.95
2023-11-14T17:15:27.845Z,0.90
2023-11-14T17:17:54.463Z,1.40
2023-11-14T17:20:21.008Z,0.80
2023-11-14T17:22:47.393Z,1.67
2023-11-14T17:25:15.377Z,1.10
2023-11-14T17:27:41.855Z,2.08
2023-11-14T17:30:08.599Z,1.50
2023-11-14T17:32:35.127Z,2.58
2023-11-14T17:35:01.871Z,1.73
2023-11-14T17:37:28.370Z,1.40
2023-11-14T17:39:55.385Z,1.08
2023-11-14T17:42:21.827Z,1.25
2023-11-14T17:44:49.370Z,0.98
2023-11-14T17:47:19.240Z,1.02
2023-11-14T17:49:45.785Z,0.98
2023-11-14T17:52:12.447Z,1.55
2023-11-14T17:54:41.257Z,1.20
2023-11-14T17:57:10.454Z,1.40
2023-11-14T17:59:37.190Z,1.10
2023-11-14T18:02:03.913Z,1.77
2023-11-14T18:04:30.742Z,1.02
2023-11-14T18:06:57.189Z,1.17
2023-11-14T18:09:28.540Z,1.00
2023-11-14T18:12:00.237Z,1.10
2023-11-14T18:14:26.665Z,0.80
2023-11-14T18:16:53.262Z,1.10
2023-11-14T18:19:19.728Z,0.80
2023-11-14T18:21:46.831Z,1.10
2023-11-14T18:24:13.237Z,1.30
2023-11-14T18:26:40.855Z,0.80
2023-11-14T18:29:07.391Z,1.15
2023-11-14T18:31:33.942Z,1.27
2023-11-14T18:34:00.402Z,1.02
2023-11-14T18:36:26.940Z,1.40
2023-11-14T18:38:53.383Z,0.93
2023-11-14T18:41:21.034Z,1.15
2023-11-14T18:43:47.723Z,1.30
2023-11-14T18:46:16.887Z,1.15
2023-11-14T18:48:44.004Z,1.45
2023-11-14T18:51:10.442Z,1.88
2023-11-14T18:53:36.857Z,1.02
2023-11-14T18:56:03.554Z,1.63
2023-11-14T18:58:29.956Z,1.42
2023-11-14T19:01:02.191Z,1.15
2023-11-14T19:03:29.067Z,2.67
2023-11-14T19:05:55.716Z,2.28
2023-11-14T19:08:22.124Z,1.73
2023-11-14T19:10:48.535Z,1.58
2023-11-14T19:13:15.098Z,1.52
2023-11-14T19:15:42.147Z,1.40
2023-11-14T19:18:09.025Z,2.35
2023-11-14T19:20:37.851Z,1.55
2023-11-14T19:23:40.387Z,1.60
2023-11-14T19:28:20.909Z,1.50
2023-11-14T19:30:47.454Z,1.63
2023-11-14T19:33:14.127Z,1.52
2023-11-14T19:35:41.374Z,1.67
2023-11-14T19:38:08.973Z,1.77
2023-11-14T19:40:35.420Z,1.20
2023-11-14T19:43:03.805Z,1.40
2023-11-14T19:45:30.225Z,1.35
2023-11-14T19:47:56.756Z,1.73
2023-11-14T19:50:23.460Z,1.58
2023-11-14T19:52:50.072Z,1.60
2023-11-14T19:55:16.517Z,1.70
2023-11-14T19:57:43.418Z,2.00
2023-11-14T20:00:16.898Z,1.60
2023-11-14T20:02:46.656Z,1.70
2023-11-14T20:05:13.727Z,1.63
2023-11-14T20:07:41.201Z,1.75
2023-11-14T20:10:09.524Z,1.55
2023-11-14T20:12:37.018Z,2.75
2023-11-14T20:15:04.262Z,2.70
2023-11-14T20:17:30.789Z,3.20
2023-11-14T20:19:57.210Z,2.22
2023-11-14T20:22:23.888Z,2.63
2023-11-14T20:24:52.279Z,2.30
2023-11-14T20:27:18.801Z,2.88
2023-11-14T20:29:45.267Z,2.13
2023-11-14T20:32:11.698Z,2.65
2023-11-14T20:34:38.106Z,2.05
2023-11-14T20:37:04.689Z,1.90
2023-11-14T20:39:32.878Z,2.15
2023-11-14T20:42:00.705Z,2.88
2023-11-14T20:44:28.973Z,2.47
2023-11-14T20:46:55.695Z,2.67
2023-11-14T20:49:22.229Z,2.42
2023-11-14T20:51:48.637Z,3.25
2023-11-14T20:54:15.366Z,1.95
2023-11-14T20:56:42.274Z,2.05
2023-11-14T20:59:08.681Z,2.50
2023-11-14T21:01:35.226Z,2.13
2023-11-14T21:04:01.703Z,2.72
2023-11-14T21:06:29.831Z,2.72
2023-11-14T21:08:56.514Z,2.45
2023-11-14T21:11:23.256Z,2.75
2023-11-14T21:13:49.836Z,2.95
2023-11-14T21:16:16.461Z,3.08
2023-11-14T21:18:43.066Z,3.13
2023-11-14T21:21:09.955Z,3.95
2023-11-14T21:23:39.779Z,3.58
2023-11-14T21:26:07.134Z,2.80
2023-11-14T21:28:33.518Z,2.50
2023-11-14T21:31:07.868Z,1.80
2023-11-14T21:33:36.872Z,1.15
2023-11-14T21:36:07.866Z,1.38
2023-11-14T21:38:34.857Z,1.40
2023-11-14T21:41:01.749Z,1.00
2023-11-14T21:43:28.261Z,1.42
2023-11-14T21:45:55.216Z,1.95
2023-11-14T21:48:22.167Z,1.20
2023-11-14T21:50:49.340Z,1.65
2023-11-14T21:53:17.064Z,1.65
2023-11-14T21:55:47.166Z,1.80
2023-11-14T21:58:13.682Z,1.90
2023-11-14T22:00:40.135Z,2.20
2023-11-14T22:03:06.699Z,1.98
2023-11-14T22:05:34.595Z,2.30
2023-11-14T22:08:01.022Z,2.15
2023-11-14T22:10:27.517Z,2.08
2023-11-14T22:12:53.880Z,2.17
2023-11-14T22:15:20.363Z,2.35
2023-11-14T22:17:48.502Z,2.50
2023-11-14T22:20:15.358Z,2.50
2023-11-14T22:22:42.190Z,2.60
2023-11-14T22:25:09.338Z,3.20
2023-11-14T22:27:37.471Z,2.67
2023-11-14T22:30:05.469Z,2.47
2023-11-14T22:32:33.181Z,2.22
2023-11-14T22:35:01.100Z,2.30
2023-11-14T22:37:29.203Z,1.80
2023-11-14T22:39:56.562Z,1.75
2023-11-14T22:42:23.156Z,1.90
2023-11-14T22:44:49.720Z,1.30
2023-11-14T22:47:16.698Z,1.65
2023-11-14T22:49:44.405Z,1.30
2023-11-14T22:52:10.944Z,1.40
2023-11-14T22:54:37.677Z,1.58
2023-11-14T22:57:04.427Z,1.50
2023-11-14T22:59:31.119Z,1.90
2023-11-14T23:01:57.814Z,1.58
2023-11-14T23:04:26.430Z,1.77
2023-11-14T23:06:54.470Z,1.58
2023-11-14T23:09:21.005Z,1.42
2023-11-14T23:11:48.532Z,1.52
2023-11-14T23:14:15.455Z,1.95
2023-11-14T23:16:43.330Z,1.67
2023-11-14T23:19:10.376Z,1.80
2023-11-14T23:21:42.665Z,1.52
2023-11-14T23:24:12.645Z,1.50
2023-11-14T23:26:39.146Z,1.90
2023-11-14T23:29:07.238Z,1.30
2023-11-14T23:31:33.612Z,1.83
2023-11-14T23:34:00.054Z,1.42
2023-11-14T23:36:26.684Z,1.60
2023-11-14T23:38:56.121Z,1.48
2023-11-14T23:41:23.492Z,1.48
2023-11-14T23:43:50.817Z,1.00
2023-11-14T23:46:18.273Z,2.08
2023-11-14T23:48:44.711Z,1.52
2023-11-14T23:51:13.618Z,1.80
2023-11-14T23:53:40.667Z,1.80
2023-11-14T23:56:07.909Z,1.98
2023-11-14T23:58:34.327Z,1.70
